createdAt,value
2018-06-13T00:00:56.668Z,962.32
2018-06-13T00:01:56.596Z,962.52
2018-06-13T00:02:56.573Z,962.3
2018-06-13T00:03:56.576Z,962.21
2018-06-13T00:04:56.596Z,962.59
2018-06-13T00:05:56.622Z,962.46
2018-06-13T00:06:56.580Z,962.05
2018-06-13T00:07:56.604Z,962.36
2018-06-13T00:08:56.598Z,962.37
2018-06-13T00:09:56.600Z,962.51
2018-06-13T00:23:22.218Z,963.02
2018-06-13T00:24:22.541Z,963.47
2018-06-13T00:25:22.207Z,963.74
2018-06-13T00:26:22.226Z,963.33
2018-06-13T00:27:22.176Z,963.36
2018-06-13T00:28:22.171Z,963.85
2018-06-13T00:29:22.235Z,963.52
2018-06-13T00:30:22.178Z,963.94
2018-06-13T00:31:22.199Z,963.83
2018-06-13T00:32:22.207Z,963.54
2018-06-13T00:33:22.211Z,963.68
2018-06-13T00:34:22.193Z,963.9
2018-06-13T00:35:22.231Z,963.45
2018-06-13T00:36:22.270Z,963.59
2018-06-13T00:37:22.210Z,963.89
2018-06-13T00:38:22.188Z,963.94
2018-06-13T00:39:22.245Z,963.87
2018-06-13T00:40:22.228Z,963.74
2018-06-13T00:41:22.264Z,963.54
2018-06-13T00:42:22.294Z,963.35
2018-06-13T00:43:22.259Z,963.72
2018-06-13T00:44:22.265Z,963.75
2018-06-13T00:45:22.259Z,963.63
2018-06-13T00:46:22.331Z,963.73
2018-06-13T00:47:22.328Z,963.72
2018-06-13T00:48:22.313Z,963.57
2018-06-13T00:49:22.296Z,964.04
2018-06-13T00:50:22.267Z,964.17
2018-06-13T00:51:22.250Z,964.05
2018-06-13T00:52:22.306Z,963.74
2018-06-13T00:53:22.263Z,964.07
2018-06-13T00:54:22.340Z,963.84
2018-06-13T00:55:22.301Z,963.92
2018-06-13T00:56:22.317Z,963.36
2018-06-13T00:57:22.264Z,964.29
2018-06-13T00:58:22.272Z,963.79
2018-06-13T00:59:22.305Z,963.75
2018-06-13T01:00:22.333Z,963.66
2018-06-13T01:01:22.290Z,963.95
2018-06-13T01:02:22.299Z,963.96
2018-06-13T01:03:22.305Z,963.96
2018-06-13T01:04:22.284Z,963.88
2018-06-13T01:05:22.304Z,963.91
2018-06-13T01:06:22.327Z,964.03
2018-06-13T01:07:22.334Z,964.13
2018-06-13T01:08:22.345Z,964.05
2018-06-13T01:09:22.305Z,964.18
2018-06-13T01:10:22.299Z,964.4
2018-06-13T01:11:22.333Z,964.12
2018-06-13T01:12:22.344Z,964.52
2018-06-13T01:13:22.347Z,963.91
2018-06-13T01:14:22.324Z,964.38
2018-06-13T01:15:22.335Z,964.23
2018-06-13T01:16:22.342Z,964.07
2018-06-13T01:17:22.341Z,964.48
2018-06-13T01:18:22.331Z,964.15
2018-06-13T01:19:22.311Z,964.36
2018-06-13T01:20:22.319Z,964.05
2018-06-13T01:21:22.344Z,964.15
2018-06-13T01:22:22.331Z,964.23
2018-06-13T01:23:22.311Z,964.3
2018-06-13T01:24:22.341Z,964.26
2018-06-13T01:25:22.355Z,964.27
2018-06-13T01:26:22.331Z,964.44
2018-06-13T01:27:22.347Z,964.36
2018-06-13T01:28:22.404Z,964.32
2018-06-13T01:29:22.422Z,964.39
2018-06-13T01:30:22.385Z,964.38
2018-06-13T01:31:22.340Z,964.59
2018-06-13T01:32:22.337Z,964.57
2018-06-13T01:33:22.397Z,964.18
2018-06-13T01:34:22.352Z,964.25
2018-06-13T01:35:22.362Z,964.05
2018-06-13T01:36:22.371Z,964.54
2018-06-13T01:37:22.371Z,964.2
2018-06-13T01:38:22.406Z,964.21
2018-06-13T01:39:22.362Z,964.42
2018-06-13T01:40:22.367Z,964.21
2018-06-13T01:41:22.383Z,964.49
2018-06-13T01:42:22.408Z,964.5
2018-06-13T01:43:22.363Z,964.4
2018-06-13T01:44:22.373Z,964.55
2018-06-13T01:45:22.399Z,964.66
2018-06-13T01:46:22.381Z,964.72
2018-06-13T01:48:41.188Z,964.46
2018-06-13T01:49:41.477Z,964.76
2018-06-13T01:50:41.199Z,964.83
2018-06-13T01:51:41.196Z,964.48
2018-06-13T01:52:41.217Z,964.94
2018-06-13T01:53:41.248Z,964.91
2018-06-13T01:54:41.208Z,964.7
2018-06-13T01:55:41.182Z,965.03
2018-06-13T01:56:41.193Z,965.01
2018-06-13T01:57:41.199Z,964.98
2018-06-13T01:58:41.189Z,964.71
2018-06-13T01:59:41.231Z,964.7
2018-06-13T02:00:41.236Z,964.91
2018-06-13T02:01:41.197Z,964.83
2018-06-13T02:02:41.189Z,964.9
2018-06-13T02:03:41.198Z,965.13
2018-06-13T02:04:41.213Z,965.12
2018-06-13T02:05:41.212Z,965.09
2018-06-13T02:06:41.224Z,964.99
2018-06-13T02:07:41.226Z,965.1
2018-06-13T02:08:41.239Z,965.31
2018-06-13T02:09:41.220Z,965.07
2018-06-13T02:10:41.208Z,965.18
2018-06-13T02:11:41.237Z,965.31
2018-06-13T02:12:41.260Z,965.01
2018-06-13T02:13:41.220Z,965.25
2018-06-13T02:14:41.235Z,965.39
2018-06-13T02:15:41.234Z,965.42
2018-06-13T02:16:41.233Z,965.4
2018-06-13T02:17:41.222Z,965.48
2018-06-13T02:18:41.224Z,965.18
2018-06-13T02:19:41.232Z,965.42
2018-06-13T02:20:41.221Z,965.5
2018-06-13T02:21:41.235Z,965.82
2018-06-13T02:22:41.281Z,965.7
2018-06-13T02:23:41.324Z,965.57
2018-06-13T02:24:41.237Z,965.72
2018-06-13T02:25:41.242Z,965.64
2018-06-13T02:26:41.246Z,966.01
2018-06-13T02:27:41.309Z,966.05
2018-06-13T02:28:41.259Z,965.75
2018-06-13T02:29:41.267Z,965.95
2018-06-13T02:30:41.259Z,965.91
2018-06-13T02:31:41.239Z,965.9
2018-06-13T02:32:41.246Z,965.91
2018-06-13T02:33:41.296Z,965.92
2018-06-13T02:34:41.257Z,966.22
2018-06-13T02:35:41.255Z,965.97
2018-06-13T02:36:41.316Z,966.07
2018-06-13T02:37:41.279Z,966.09
2018-06-13T02:38:41.303Z,965.89
2018-06-13T02:39:41.255Z,965.8
2018-06-13T02:40:41.258Z,966.01
2018-06-13T02:41:41.266Z,966.12
2018-06-13T02:42:41.284Z,966.18
2018-06-13T02:43:41.266Z,966.17
2018-06-13T02:44:41.282Z,966.06
2018-06-13T02:45:41.289Z,966.49
2018-06-13T02:46:41.275Z,966.31
2018-06-13T02:47:41.277Z,966.48
2018-06-13T02:48:41.322Z,966.28
2018-06-13T02:49:41.268Z,966.62
2018-06-13T02:50:41.289Z,966.65
2018-06-13T02:51:41.322Z,966.55
2018-06-13T02:52:41.298Z,966.77
2018-06-13T02:53:41.382Z,966.78
2018-06-13T02:54:41.323Z,966.75
2018-06-13T02:55:41.305Z,966.62
2018-06-13T02:56:41.292Z,966.65
2018-06-13T02:57:41.297Z,967.17
2018-06-13T02:58:41.359Z,966.86
2018-06-13T02:59:41.310Z,966.86
2018-06-13T03:00:41.314Z,966.99
2018-06-13T03:01:41.349Z,966.81
2018-06-13T03:02:41.298Z,967.1
2018-06-13T03:03:41.332Z,967.15
2018-06-13T03:04:41.300Z,967.16
2018-06-13T03:05:41.322Z,967.46
2018-06-13T03:06:41.298Z,967.28
2018-06-13T03:07:41.310Z,967.25
2018-06-13T03:08:41.325Z,967.08
2018-06-13T03:09:41.320Z,967.16
2018-06-13T03:10:41.331Z,967.31
2018-06-13T03:11:41.360Z,967.51
2018-06-13T03:12:41.347Z,967.42
2018-06-13T03:13:41.325Z,967.34
2018-06-13T03:14:41.407Z,967.59
2018-06-13T03:15:41.358Z,967.55
2018-06-13T03:16:41.403Z,967.57
2018-06-13T03:17:41.361Z,967.81
2018-06-13T03:18:41.336Z,968.2
2018-06-13T03:19:41.337Z,967.93
2018-06-13T03:20:41.340Z,967.7
2018-06-13T03:21:41.346Z,967.9
2018-06-13T03:22:41.392Z,968.03
2018-06-13T03:23:41.387Z,967.83
2018-06-13T03:24:41.382Z,967.79
2018-06-13T03:25:41.351Z,967.93
2018-06-13T03:26:41.383Z,968.1
2018-06-13T03:27:41.388Z,967.83
2018-06-13T03:28:41.351Z,968.2
2018-06-13T03:29:41.351Z,968.21
2018-06-13T03:30:41.381Z,968.17
2018-06-13T03:31:41.387Z,968.05
2018-06-13T03:32:41.400Z,967.88
2018-06-13T03:33:41.357Z,968.03
2018-06-13T03:34:41.379Z,968.23
2018-06-13T03:35:41.366Z,968.44
2018-06-13T03:36:41.366Z,968.58
2018-06-13T03:37:41.374Z,968.29
2018-06-13T03:38:41.387Z,968.49
2018-06-13T03:39:41.363Z,968.53
2018-06-13T03:40:41.377Z,968.95
2018-06-13T03:41:41.418Z,969
2018-06-13T03:42:41.381Z,968.8
2018-06-13T03:43:41.364Z,968.69
2018-06-13T03:44:41.408Z,968.78
2018-06-13T03:45:41.388Z,968.79
2018-06-13T03:46:41.379Z,968.59
2018-06-13T03:47:41.432Z,969
2018-06-13T03:48:41.394Z,969.18
2018-06-13T03:49:41.375Z,969.09
2018-06-13T03:50:41.378Z,969.01
2018-06-13T03:51:41.411Z,969
2018-06-13T03:52:41.396Z,969.07
2018-06-13T03:53:41.402Z,968.91
2018-06-13T03:54:41.413Z,968.91
2018-06-13T03:55:41.395Z,969.24
2018-06-13T03:56:41.426Z,969.21
2018-06-13T03:57:41.406Z,969.03
2018-06-13T03:58:41.441Z,969.19
2018-06-13T03:59:41.414Z,969.22
2018-06-13T04:00:41.408Z,968.93
2018-06-13T04:01:41.461Z,969.09
2018-06-13T04:02:41.409Z,969.2
2018-06-13T04:03:41.420Z,969.2
2018-06-13T04:04:41.426Z,968.72
2018-06-13T04:05:41.432Z,969.13
2018-06-13T04:06:41.415Z,969.22
2018-06-13T04:07:41.415Z,969.03
2018-06-13T04:08:41.420Z,969.09
2018-06-13T04:09:41.432Z,969.18
2018-06-13T04:10:41.441Z,969.14
2018-06-13T04:11:41.467Z,969.13
2018-06-13T04:12:41.476Z,969.17
2018-06-13T04:13:41.472Z,969.41
2018-06-13T04:14:41.432Z,969.28
2018-06-13T04:15:41.442Z,969.16
2018-06-13T04:16:41.430Z,969.49
2018-06-13T04:17:41.431Z,969.28
2018-06-13T04:18:41.475Z,969.21
2018-06-13T04:19:41.450Z,969.4
2018-06-13T04:20:41.446Z,969.43
2018-06-13T04:21:41.432Z,969.33
2018-06-13T04:22:41.471Z,969.46
2018-06-13T04:23:41.472Z,969.46
2018-06-13T04:24:41.449Z,969.45
2018-06-13T04:25:41.454Z,969.36
2018-06-13T04:26:41.445Z,969.42
2018-06-13T04:27:41.445Z,969.25
2018-06-13T04:28:41.458Z,969.46
2018-06-13T04:29:41.456Z,969.46
2018-06-13T04:30:41.488Z,969.47
2018-06-13T04:31:41.494Z,969.39
2018-06-13T04:32:41.486Z,969.58
2018-06-13T04:33:41.528Z,969.51
2018-06-13T04:34:41.460Z,969.71
2018-06-13T04:35:41.498Z,969.52
2018-06-13T04:36:41.487Z,969.66
2018-06-13T04:37:41.511Z,969.66
2018-06-13T04:38:41.526Z,970.04
2018-06-13T04:39:41.481Z,969.87
2018-06-13T04:40:41.487Z,969.88
2018-06-13T04:41:41.513Z,969.98
2018-06-13T04:42:41.520Z,969.87
2018-06-13T04:43:41.479Z,969.68
2018-06-13T04:44:41.477Z,969.68
2018-06-13T04:45:41.534Z,969.65
2018-06-13T04:46:41.496Z,970.11
2018-06-13T04:47:41.497Z,969.87
2018-06-13T04:48:41.560Z,969.68
2018-06-13T04:49:41.485Z,969.72
2018-06-13T04:50:41.490Z,969.89
2018-06-13T04:51:41.498Z,970.03
2018-06-13T04:52:41.535Z,970.15
2018-06-13T04:53:41.485Z,970.15
2018-06-13T04:54:41.542Z,970.24
2018-06-13T04:55:41.499Z,970.34
2018-06-13T04:56:41.527Z,970.3
2018-06-13T04:57:41.508Z,970.2
2018-06-13T04:58:41.526Z,970.54
2018-06-13T04:59:41.513Z,970.14
2018-06-13T05:00:41.511Z,970.42
2018-06-13T05:01:41.509Z,970.47
2018-06-13T05:02:41.570Z,970.66
2018-06-13T05:03:41.552Z,970.6
2018-06-13T05:04:41.528Z,970.83
2018-06-13T05:05:41.534Z,970.51
2018-06-13T05:06:41.522Z,970.4
2018-06-13T05:07:41.526Z,970.7
2018-06-13T05:08:41.561Z,970.76
2018-06-13T05:09:41.560Z,971.07
2018-06-13T05:10:41.517Z,970.89
2018-06-13T05:11:41.525Z,970.89
2018-06-13T05:12:41.537Z,971.04
2018-06-13T05:13:41.540Z,970.92
2018-06-13T05:14:41.548Z,970.73
2018-06-13T05:15:41.549Z,971.13
2018-06-13T05:16:41.536Z,970.76
2018-06-13T05:17:41.536Z,970.86
2018-06-13T05:18:41.598Z,970.66
2018-06-13T05:19:41.574Z,971.06
2018-06-13T05:20:41.607Z,971.02
2018-06-13T05:21:41.567Z,971.1
2018-06-13T05:22:41.568Z,970.79
2018-06-13T05:23:41.560Z,971.2
2018-06-13T05:24:41.569Z,971.12
2018-06-13T05:25:41.572Z,971.1
2018-06-13T05:26:41.594Z,971.01
2018-06-13T05:27:41.561Z,971.03
2018-06-13T05:28:41.651Z,971.3
2018-06-13T05:29:41.616Z,971.22
2018-06-13T05:30:41.571Z,971.42
2018-06-13T05:31:41.581Z,971.11
2018-06-13T05:32:41.558Z,971.35
2018-06-13T05:33:41.660Z,971.38
2018-06-13T05:34:41.574Z,971.49
2018-06-13T05:35:41.579Z,971.25
2018-06-13T05:36:41.610Z,971.57
2018-06-13T05:37:41.570Z,971.56
2018-06-13T05:38:41.658Z,971.59
2018-06-13T05:39:41.578Z,971.42
2018-06-13T05:40:41.584Z,971.57
2018-06-13T05:41:41.598Z,971.7
2018-06-13T05:42:41.596Z,971.59
2018-06-13T05:43:41.658Z,971.49
2018-06-13T05:44:41.613Z,971.49
2018-06-13T05:45:41.589Z,971.58
2018-06-13T05:46:41.631Z,971.84
2018-06-13T05:47:41.613Z,971.45
2018-06-13T05:48:41.611Z,971.67
2018-06-13T05:49:41.680Z,971.87
2018-06-13T05:50:41.602Z,971.81
2018-06-13T05:51:41.611Z,972.04
2018-06-13T05:52:41.633Z,971.65
2018-06-13T05:53:41.624Z,971.88
2018-06-13T05:54:41.639Z,971.8
2018-06-13T05:55:41.607Z,971.78
2018-06-13T05:59:02.253Z,971.96
2018-06-13T06:00:02.191Z,971.87
2018-06-13T06:01:02.190Z,972
2018-06-13T06:02:02.169Z,972.1
2018-06-13T06:03:02.176Z,972.23
2018-06-13T06:04:02.208Z,972.34
2018-06-13T06:05:02.224Z,972.4
2018-06-13T06:06:02.181Z,972.54
2018-06-13T06:07:02.187Z,972.2
2018-06-13T06:08:02.247Z,972.42
2018-06-13T06:09:02.252Z,972.04
2018-06-13T06:10:02.230Z,972.28
2018-06-13T06:11:02.260Z,972.46
2018-06-13T06:12:02.236Z,972.43
2018-06-13T06:13:02.253Z,972.59
2018-06-13T06:14:02.274Z,972.19
2018-06-13T06:15:02.282Z,972.29
2018-06-13T06:16:02.243Z,972.21
2018-06-13T06:17:02.257Z,972.27
2018-06-13T06:18:02.279Z,972.23
2018-06-13T06:19:02.284Z,972.19
2018-06-13T06:20:02.247Z,972.48
2018-06-13T06:21:02.271Z,972.32
2018-06-13T06:22:02.261Z,972.63
2018-06-13T06:23:02.286Z,972.23
2018-06-13T06:24:02.264Z,972.76
2018-06-13T06:25:02.327Z,972.66
2018-06-13T06:26:02.250Z,972.63
2018-06-13T06:27:02.287Z,972.56
2018-06-13T06:28:02.266Z,972.31
2018-06-13T06:29:02.272Z,972.47
2018-06-13T06:30:02.277Z,972.62
2018-06-13T06:31:02.287Z,972.63
2018-06-13T06:32:02.272Z,972.78
2018-06-13T06:33:02.275Z,972.62
2018-06-13T06:34:02.277Z,972.44
2018-06-13T06:35:02.296Z,972.83
2018-06-13T06:36:02.318Z,972.64
2018-06-13T06:37:02.299Z,972.87
2018-06-13T06:38:02.291Z,972.79
2018-06-13T06:39:02.323Z,972.64
2018-06-13T06:40:02.320Z,972.81
2018-06-13T06:41:02.328Z,972.64
2018-06-13T06:42:02.364Z,972.54
2018-06-13T06:43:02.288Z,972.85
2018-06-13T06:44:02.295Z,972.59
2018-06-13T06:45:02.311Z,972.76
2018-06-13T06:46:02.333Z,972.59
2018-06-13T06:47:02.313Z,972.57
2018-06-13T06:48:02.328Z,972.91
2018-06-13T06:49:02.317Z,972.88
2018-06-13T06:50:02.361Z,972.74
2018-06-13T06:51:02.341Z,973.11
2018-06-13T06:52:02.345Z,973.13
2018-06-13T06:53:02.364Z,972.95
2018-06-13T06:54:02.313Z,973.18
2018-06-13T06:55:02.365Z,973.01
2018-06-13T06:56:02.353Z,973.1
2018-06-13T06:57:02.334Z,972.79
2018-06-13T06:58:02.338Z,973
2018-06-13T06:59:02.342Z,972.95
2018-06-13T07:00:02.359Z,973.22
2018-06-13T07:01:02.371Z,972.94
2018-06-13T07:02:02.361Z,972.92
2018-06-13T07:03:02.373Z,972.96
2018-06-13T07:04:02.353Z,972.96
2018-06-13T07:05:02.358Z,973.01
2018-06-13T07:06:02.340Z,973.2
2018-06-13T07:07:02.351Z,972.91
2018-06-13T07:08:02.376Z,972.87
2018-06-13T07:09:02.397Z,972.99
2018-06-13T07:10:02.370Z,973.01
2018-06-13T07:11:02.370Z,973.08
2018-06-13T07:12:02.451Z,973.15
2018-06-13T07:13:02.359Z,972.97
2018-06-13T07:14:02.378Z,973.27
2018-06-13T07:15:02.380Z,973.08
2018-06-13T07:16:02.376Z,973.08
2018-06-13T07:17:02.382Z,973.09
2018-06-13T07:18:02.375Z,973.09
2018-06-13T07:19:02.450Z,973.29
2018-06-13T07:20:02.381Z,973.48
2018-06-13T07:21:02.411Z,973.41
2018-06-13T07:22:02.427Z,973.35
2018-06-13T07:23:02.405Z,973.37
2018-06-13T07:24:02.380Z,973.18
2018-06-13T07:25:02.381Z,973.5
2018-06-13T07:26:02.417Z,973.33
2018-06-13T07:27:02.425Z,973.42
2018-06-13T07:28:02.402Z,973.42
2018-06-13T07:29:02.413Z,973.23
2018-06-13T07:30:18.852Z,973.22
2018-06-13T07:31:18.829Z,973.03
2018-06-13T07:32:18.835Z,973.43
2018-06-13T07:33:18.791Z,973.54
2018-06-13T07:34:18.805Z,973.27
2018-06-13T07:35:18.832Z,973.55
2018-06-13T07:36:18.846Z,973.6
2018-06-13T07:37:18.822Z,973.78
2018-06-13T07:38:18.838Z,973.61
2018-06-13T07:39:18.827Z,973.68
2018-06-13T07:40:18.824Z,973.71
2018-06-13T07:41:18.818Z,973.61
2018-06-13T07:42:18.828Z,973.62
2018-06-13T07:43:18.834Z,973.85
2018-06-13T07:44:18.841Z,973.73
2018-06-13T07:45:18.853Z,973.74
2018-06-13T07:46:18.838Z,973.73
2018-06-13T07:47:18.841Z,973.65
2018-06-13T07:48:18.825Z,973.65
2018-06-13T07:49:18.828Z,973.91
2018-06-13T07:50:18.855Z,973.51
2018-06-13T07:51:18.849Z,973.42
2018-06-13T07:52:18.850Z,973.64
2018-06-13T07:53:18.859Z,973.58
2018-06-13T07:54:18.855Z,973.69
2018-06-13T07:55:18.861Z,973.82
2018-06-13T07:56:18.870Z,973.73
2018-06-13T07:57:18.871Z,973.88
2018-06-13T07:58:18.887Z,973.68
2018-06-13T07:59:18.869Z,974.02
2018-06-13T08:00:18.871Z,974
2018-06-13T08:01:18.857Z,973.98
2018-06-13T08:02:18.880Z,973.91
2018-06-13T08:03:18.880Z,973.82
2018-06-13T08:04:18.900Z,973.61
2018-06-13T08:05:18.880Z,973.87
2018-06-13T08:06:18.905Z,973.83
2018-06-13T08:07:18.891Z,973.9
2018-06-13T08:08:18.958Z,974.33
2018-06-13T08:09:18.849Z,974.29
2018-06-13T08:10:18.854Z,974.39
2018-06-13T08:11:18.896Z,974
2018-06-13T08:12:18.870Z,974.5
2018-06-13T08:13:18.903Z,974.16
2018-06-13T08:14:18.879Z,974.27
2018-06-13T08:15:18.884Z,974.26
2018-06-13T08:16:18.898Z,974.18
2018-06-13T08:17:18.920Z,974.67
2018-06-13T08:18:18.887Z,974.37
2018-06-13T08:19:18.885Z,974.27
2018-06-13T08:20:18.873Z,974.49
2018-06-13T08:21:18.892Z,974.7
2018-06-13T08:22:18.909Z,974.49
2018-06-13T08:23:18.924Z,974.62
2018-06-13T08:24:18.899Z,974.28
2018-06-13T08:25:18.935Z,974.25
2018-06-13T08:26:18.915Z,974.36
2018-06-13T08:27:18.896Z,974.58
2018-06-13T08:28:18.888Z,974.41
2018-06-13T08:29:18.906Z,974.57
2018-06-13T08:30:18.927Z,974.55
2018-06-13T08:31:18.923Z,974.42
2018-06-13T08:32:18.893Z,974.31
2018-06-13T08:33:18.932Z,974.5
2018-06-13T08:34:18.936Z,974.65
2018-06-13T08:35:18.920Z,974.57
2018-06-13T08:36:18.968Z,974.55
2018-06-13T08:37:18.925Z,974.5
2018-06-13T08:38:18.929Z,974.4
2018-06-13T08:39:18.938Z,974.79
2018-06-13T08:40:18.923Z,974.88
2018-06-13T08:41:18.923Z,974.57
2018-06-13T08:42:18.928Z,974.7
2018-06-13T08:43:18.943Z,974.49
2018-06-13T08:44:18.940Z,974.7
2018-06-13T08:45:35.023Z,974.59
2018-06-13T08:46:35.005Z,974.94
2018-06-13T08:47:35.035Z,974.83
2018-06-13T08:48:35.037Z,974.94
2018-06-13T08:49:35.025Z,974.74
2018-06-13T08:50:35.342Z,974.94
2018-06-13T08:51:35.026Z,975.05
2018-06-13T08:52:35.065Z,975.12
2018-06-13T08:53:35.057Z,975.27
2018-06-13T08:54:35.035Z,975.14
2018-06-13T08:55:35.063Z,975.34
2018-06-13T08:56:35.048Z,975.28
2018-06-13T08:57:35.041Z,975.36
2018-06-13T08:58:35.057Z,975.3
2018-06-13T08:59:35.051Z,975.11
2018-06-13T09:00:35.075Z,975.2
2018-06-13T09:01:35.072Z,975.09
2018-06-13T09:02:35.065Z,975.3
2018-06-13T09:03:35.071Z,975.3
2018-06-13T09:04:35.099Z,975.2
2018-06-13T09:05:35.090Z,975.33
2018-06-13T09:06:35.100Z,975.59
2018-06-13T09:07:35.073Z,975.53
2018-06-13T09:08:35.100Z,975.27
2018-06-13T09:09:35.059Z,975.4
2018-06-13T09:10:35.074Z,975.22
2018-06-13T09:11:35.069Z,975.47
2018-06-13T09:12:35.087Z,975.52
2018-06-13T09:13:35.083Z,975.8
2018-06-13T09:14:35.087Z,975.55
2018-06-13T09:15:35.069Z,975.53
2018-06-13T09:16:35.101Z,975.94
2018-06-13T09:17:35.087Z,975.61
2018-06-13T09:18:35.089Z,975.37
2018-06-13T09:19:35.095Z,975.69
2018-06-13T09:20:35.086Z,975.74
2018-06-13T09:21:35.119Z,975.56
2018-06-13T09:22:35.107Z,975.37
2018-06-13T09:23:35.094Z,975.77
2018-06-13T09:24:35.101Z,975.68
2018-06-13T09:25:35.118Z,975.6
2018-06-13T09:26:35.092Z,975.66
2018-06-13T09:27:35.103Z,975.56
2018-06-13T09:28:35.127Z,975.89
2018-06-13T09:29:35.098Z,975.83
2018-06-13T09:30:35.115Z,975.43
2018-06-13T09:31:35.097Z,975.43
2018-06-13T09:32:35.121Z,975.69
2018-06-13T09:33:35.138Z,975.58
2018-06-13T09:34:35.121Z,975.47
2018-06-13T09:35:35.113Z,975.59
2018-06-13T09:36:35.121Z,975.76
2018-06-13T09:41:04.418Z,975.58
2018-06-13T09:42:04.397Z,975.7
2018-06-13T09:43:04.374Z,975.5
2018-06-13T09:44:04.437Z,975.88
2018-06-13T09:45:04.387Z,975.47
2018-06-13T09:46:11.860Z,976.15
2018-06-13T09:47:06.908Z,975.5
2018-06-13T09:48:04.410Z,975.8
2018-06-13T09:49:04.417Z,975.48
2018-06-13T09:50:04.413Z,975.96
2018-06-13T09:51:04.442Z,975.81
2018-06-13T09:52:04.410Z,975.63
2018-06-13T09:53:04.415Z,976.02
2018-06-13T09:54:04.401Z,975.85
2018-06-13T09:55:04.418Z,975.99
2018-06-13T09:56:04.439Z,975.54
2018-06-13T09:57:04.447Z,975.88
2018-06-13T09:58:04.430Z,976.25
2018-06-13T09:59:04.411Z,976.29
2018-06-13T10:00:04.445Z,975.69
2018-06-13T10:01:04.418Z,976.3
2018-06-13T10:02:04.449Z,976.3
2018-06-13T10:03:04.436Z,976.18
2018-06-13T10:04:04.422Z,976.5
2018-06-13T10:05:04.449Z,976.01
2018-06-13T10:06:04.427Z,976.41
2018-06-13T10:07:04.439Z,976.2
2018-06-13T10:08:04.437Z,976.31
2018-06-13T10:09:04.475Z,976.49
2018-06-13T10:10:04.450Z,976.49
2018-06-13T10:11:04.447Z,976.1
2018-06-13T10:12:04.446Z,976.38
2018-06-13T10:13:04.469Z,976.39
2018-06-13T10:14:04.455Z,976.22
2018-06-13T10:15:04.473Z,976.33
2018-06-13T10:16:04.471Z,976.3
2018-06-13T10:17:04.468Z,976.14
2018-06-13T10:18:04.478Z,976.32
2018-06-13T10:19:04.474Z,975.9
2018-06-13T10:20:04.468Z,976.19
2018-06-13T10:21:04.496Z,976.09
2018-06-13T10:22:04.505Z,976.21
2018-06-13T10:23:04.486Z,976.5
2018-06-13T10:24:04.478Z,976.54
2018-06-13T10:25:04.477Z,976.15
2018-06-13T10:26:04.458Z,976.43
2018-06-13T10:27:04.468Z,976.3
2018-06-13T10:28:04.487Z,976.18
2018-06-13T10:29:04.469Z,976.17
2018-06-13T10:30:04.504Z,976.33
2018-06-13T10:31:04.489Z,976.65
2018-06-13T10:32:04.492Z,976.46
2018-06-13T10:33:04.480Z,976.74
2018-06-13T10:34:04.482Z,976.23
2018-06-13T10:35:04.545Z,976.14
2018-06-13T10:36:04.491Z,976.46
2018-06-13T10:37:04.509Z,976.35
2018-06-13T10:38:04.502Z,976.46
2018-06-13T10:39:04.483Z,976.53
2018-06-13T10:40:04.516Z,976.57
2018-06-13T10:41:04.508Z,976.6
2018-06-13T10:42:04.504Z,976.69
2018-06-13T10:43:04.489Z,977.03
2018-06-13T10:44:04.559Z,976.75
2018-06-13T10:45:04.506Z,976.85
2018-06-13T10:46:04.504Z,976.37
2018-06-13T10:47:04.525Z,976.68
2018-06-13T10:48:04.501Z,976.71
2018-06-13T10:49:04.522Z,976.67
2018-06-13T10:50:04.509Z,976.7
2018-06-13T10:51:04.560Z,976.61
2018-06-13T10:52:04.520Z,976.92
2018-06-13T10:53:04.548Z,976.72
2018-06-13T10:54:04.538Z,976.61
2018-06-13T10:55:04.670Z,976.51
2018-06-13T10:56:04.570Z,976.7
2018-06-13T10:57:04.530Z,976.13
2018-06-13T10:58:04.629Z,976.6
2018-06-13T10:59:04.558Z,976.46
2018-06-13T11:00:04.555Z,976.23
2018-06-13T11:01:04.530Z,976.52
2018-06-13T11:02:04.527Z,976.92
2018-06-13T11:03:04.585Z,976.36
2018-06-13T11:04:04.572Z,976.66
2018-06-13T11:05:04.533Z,976.64
2018-06-13T11:06:04.541Z,976.45
2018-06-13T11:07:04.539Z,976.49
2018-06-13T11:08:04.596Z,976.16
2018-06-13T11:09:04.555Z,976.56
2018-06-13T11:10:04.534Z,976.47
2018-06-13T11:11:04.567Z,976.38
2018-06-13T11:12:04.538Z,976.57
2018-06-13T11:13:04.580Z,976.6
2018-06-13T11:14:04.582Z,976.77
2018-06-13T11:15:04.562Z,976.64
2018-06-13T11:16:04.547Z,976.63
2018-06-13T11:17:04.585Z,976.49
2018-06-13T11:18:04.563Z,976.45
2018-06-13T11:19:04.578Z,976.54
2018-06-13T11:20:04.592Z,976.92
2018-06-13T11:21:04.557Z,977.18
2018-06-13T11:22:04.581Z,976.73
2018-06-13T11:23:04.572Z,976.56
2018-06-13T11:24:04.582Z,976.63
2018-06-13T11:25:04.577Z,976.86
2018-06-13T11:26:04.574Z,976.89
2018-06-13T11:27:04.566Z,976.66
2018-06-13T11:28:04.625Z,976.48
2018-06-13T11:29:04.576Z,976.69
2018-06-13T11:30:04.588Z,976.76
2018-06-13T11:31:04.574Z,976.98
2018-06-13T11:32:04.589Z,977.19
2018-06-13T11:33:04.609Z,976.99
2018-06-13T11:34:04.624Z,977.03
2018-06-13T11:35:04.602Z,976.6
2018-06-13T11:36:04.594Z,976.89
2018-06-13T11:37:04.575Z,976.88
2018-06-13T11:38:04.645Z,976.58
2018-06-13T11:39:04.606Z,976.71
2018-06-13T11:40:04.598Z,977.38
2018-06-13T11:41:04.614Z,976.65
2018-06-13T11:42:04.636Z,976.59
2018-06-13T11:46:33.550Z,976.82
2018-06-13T11:47:33.475Z,977
2018-06-13T11:48:33.452Z,976.81
2018-06-13T11:49:33.454Z,976.97
2018-06-13T11:50:33.458Z,976.91
2018-06-13T11:51:33.479Z,976.7
2018-06-13T11:52:33.489Z,977.09
2018-06-13T11:53:33.534Z,976.89
2018-06-13T11:54:33.548Z,976.88
2018-06-13T11:55:33.494Z,976.97
2018-06-13T11:56:33.477Z,976.72
2018-06-13T11:57:33.487Z,976.82
2018-06-13T11:58:34.028Z,976.94
2018-06-13T11:59:33.473Z,976.6
2018-06-13T12:00:33.529Z,976.73
2018-06-13T12:01:33.496Z,977.02
2018-06-13T12:02:33.496Z,976.66
2018-06-13T12:03:33.506Z,976.93
2018-06-13T12:04:33.501Z,977.06
2018-06-13T12:05:33.485Z,976.67
2018-06-13T12:06:33.491Z,977.26
2018-06-13T12:07:33.523Z,977.08
2018-06-13T12:08:33.504Z,977.07
2018-06-13T12:09:33.508Z,976.81
2018-06-13T12:10:33.498Z,976.65
2018-06-13T12:11:33.541Z,976.86
2018-06-13T12:12:33.506Z,977.23
2018-06-13T12:13:33.510Z,977.02
2018-06-13T12:14:33.520Z,977.08
2018-06-13T12:15:33.498Z,977.13
2018-06-13T12:16:33.498Z,977.12
2018-06-13T12:17:33.514Z,977.02
2018-06-13T12:18:33.519Z,976.91
2018-06-13T12:19:33.527Z,977.1
2018-06-13T12:20:33.535Z,977.29
2018-06-13T12:21:33.516Z,977.2
2018-06-13T12:22:33.573Z,977.51
2018-06-13T12:23:33.547Z,977.32
2018-06-13T12:24:33.537Z,976.83
2018-06-13T12:25:33.578Z,977.16
2018-06-13T12:26:33.541Z,977.22
2018-06-13T12:27:33.565Z,977.23
2018-06-13T12:28:33.618Z,977.34
2018-06-13T12:29:33.552Z,977.14
2018-06-13T12:30:33.552Z,977.16
2018-06-13T12:31:33.535Z,977.37
2018-06-13T12:32:33.526Z,977.28
2018-06-13T12:33:33.588Z,977.39
2018-06-13T12:34:33.547Z,977.39
2018-06-13T12:35:33.608Z,977.18
2018-06-13T12:36:33.539Z,977.08
2018-06-13T12:37:33.545Z,977.35
2018-06-13T12:38:33.557Z,977.65
2018-06-13T12:39:33.546Z,977.25
2018-06-13T12:40:33.567Z,977.36
2018-06-13T12:41:33.564Z,977.39
2018-06-13T12:42:33.573Z,977.49
2018-06-13T12:43:33.577Z,977.27
2018-06-13T12:44:33.567Z,977.39
2018-06-13T12:45:33.583Z,977.35
2018-06-13T12:46:33.579Z,977.76
2018-06-13T12:47:33.574Z,977.48
2018-06-13T12:48:33.610Z,977.57
2018-06-13T12:49:33.564Z,977.5
2018-06-13T12:50:33.584Z,977.62
2018-06-13T12:51:33.604Z,977.66
2018-06-13T12:52:33.582Z,977.66
2018-06-13T12:53:33.629Z,977.62
2018-06-13T12:54:33.599Z,977.23
2018-06-13T12:55:33.591Z,977.21